NCAR-RAP Real-Time Weather Data

Output produced by METARs form (01 December 2020  17:49 UTC)
found at http://weather.rap.ucar.edu/surface/
 
KMFD 011706Z 26013G18KT 3SM BR BKN011 OVC017 M02/M04 A2976 RMK AO2 UPB1655E06 P0000 T10171039
KMFD 011659Z 26013G18KT 3SM UP BR BKN009 BKN013 OVC019 M02/M04 A2977 RMK AO2 UPB55 CIG 008V012 P0000 T10171039
KMFD 011652Z 26010G17KT 3SM HZ BKN011 OVC017 M01/M04 A2976 RMK AO2 UPB11E20SNE06B20E32 SLP093 P0000 T10111039
KMFD 011635Z 26010G16KT 4SM BR BKN011 OVC017 M02/M04 A2977 RMK AO2 UPB11E20SNE06B20E32 P0000 T10171039
KMFD 011628Z 26012KT 3SM -SN BR SCT009 OVC016 M02/M04 A2977 RMK AO2 UPB11E20SNE06B20 P0000 T10171039
KMFD 011622Z 27009KT 3SM -SN BR BKN009 OVC016 M02/M03 A2977 RMK AO2 UPB11E20SNE06B20 CIG 008V012 P0000 T10171033
KMFD 011603Z 27009KT 3SM -SN BR BKN010 OVC015 M02/M03 A2977 RMK AO2 P0000 T10171033
KMFD 011552Z 27011G19KT 2SM -SN BR BKN008 OVC022 M02/M04 A2977 RMK AO2 UPB21E30SNB41 SLP095 P0000 T10171039
KMFD 011540Z 28009G19KT 4SM BR BKN008 BKN012 OVC018 M02/M04 A2977 RMK AO2 UPB21E30 CIG 007V011 P0000 T10221039
KMFD 011520Z 27009G15KT 5SM BR SCT008 BKN012 OVC038 M02/M04 A2977 RMK AO2 T10221039
KMFD 011452Z 28011G20KT 7SM OVC014 M02/M04 A2976 RMK AO2 SNE02B19E46 SLP093 P0000 60001 T10221039 53010
KMFD 011437Z 29012G18KT 5SM -SN BR BKN014 OVC044 M02/M04 A2976 RMK AO2 SNE02B19 P0000 T10221044
KMFD 011430Z 28009G16KT 3SM -SN BR FEW009 BKN016 OVC044 M02/M04 A2976 RMK AO2 SNE02B19 P0000 T10221039
KMFD 011426Z 29010G16KT 2 1/2SM -SN BR FEW011 BKN016 OVC044 M02/M04 A2976 RMK AO2 SNE02B19 P0000 T10221039
KMFD 011407Z 28012G17KT 9SM SCT009 BKN014 OVC044 M02/M04 A2975 RMK AO2 SNE02 P0000 T10221044
KMFD 011352Z 28011G17KT 3SM -SN BR BKN009 OVC014 M02/M04 A2975 RMK AO2 SLP087 P0000 T10221039
KMFD 011323Z 28007KT 3SM -SN BR BKN009 OVC026 M03/M04 A2975 RMK AO2 P0000 T10281039
KMFD 011300Z 30010G19KT 1 1/4SM -SN BR BKN009 OVC028 M03/M04 A2975 RMK AO2 P0000 T10281039
KMFD 011252Z 30010G18KT 2SM -SN BR OVC009 M03/M04 A2974 RMK AO2 SLP085 P0001 T10281039
KMFD 011239Z 29012G20KT 2SM -SN BR OVC009 M03/M03 A2974 RMK AO2 P0000 T10281033
KMFD 011232Z 28009KT 3SM -SN BR OVC009 M02/M03 A2974 RMK AO2 P0000 T10221033
KMFD 011210Z 28009KT 2 1/2SM -SN BR BKN009 OVC014 M03/M03 A2974 RMK AO2 P0000 T10281033
KMFD 011152Z 28009KT 1 3/4SM -SN BR BKN009 BKN013 OVC023 M03/M04 A2973 RMK AO2 SLP082 P0002 60010 70065 T10281039 11022 21028 53014
KMFD 011130Z 28009G15KT 1 1/2SM -SN BR BKN009 BKN014 OVC018 M03/M03 A2972 RMK AO2 P0001 T10281033
KMFD 011120Z 29008G17KT 1 1/4SM -SN BR SCT008 OVC018 M03/M04 A2972 RMK AO2 P0000 T10281039
KMFD 011113Z 29010G17KT 1 1/4SM -SN BR SCT008 BKN013 OVC018 M03/M03 A2972 RMK AO2 P0000 T10281033
KMFD 011106Z 29009KT 1 1/4SM -SN BR SCT008 OVC017 M03/M04 A2972 RMK AO2 P0000 T10281039
KMFD 011052Z AUTO 30011KT 1 1/4SM -SN BR BKN008 OVC019 M03/M04 A2971 RMK AO2 SLP074 P0002 T10281039 TSNO
KMFD 011021Z AUTO 30015G23KT 1 1/4SM -SN BR BKN008 OVC015 M03/M04 A2970 RMK AO2 P0001 T10281039 TSNO
KMFD 010952Z AUTO 29010KT 1 1/4SM -SN BR SCT008 BKN013 OVC019 M03/M04 A2970 RMK AO2 SLP071 P0001 T10281039 TSNO
KMFD 010927Z AUTO 30013G20KT 1 1/4SM -SN BR BKN008 OVC015 M03/M04 A2970 RMK AO2 P0001 T10281039 TSNO
KMFD 010916Z AUTO 30011G19KT 1SM -SN BR SCT008 OVC014 M02/M04 A2969 RMK AO2 P0000 T10221039 TSNO
KMFD 010905Z AUTO 30014G19KT 1 1/4SM -SN BR SCT008 OVC016 M02/M04 A2969 RMK AO2 P0000 T10221039 TSNO
KMFD 010852Z AUTO 30014G22KT 1 1/4SM -SN BR BKN010 OVC016 M02/M03 A2969 RMK AO2 SLP066 P0002 60005 T10221033 53004 TSNO
KMFD 010849Z AUTO 29011G19KT 1 1/4SM -SN BR SCT009 OVC014 M02/M03 A2969 RMK AO2 P0002 TSNO
KMFD 010842Z AUTO 30011G21KT 1 1/4SM -SN BR BKN009 OVC014 M02/M04 A2969 RMK AO2 P0001 T10221039 TSNO
KMFD 010823Z AUTO 30011G20KT 1SM -SN BR SCT009 OVC013 M02/M03 A2969 RMK AO2 P0001 T10221033 TSNO
KMFD 010810Z AUTO 29010KT 1SM -SN BR BKN009 OVC013 M02/M03 A2968 RMK AO2 P0000 T10221033 TSNO
KMFD 010752Z AUTO 30013G21KT 1SM -SN BR OVC010 M02/M03 A2968 RMK AO2 SLP062 P0002 T10221033 TSNO
KMFD 010747Z AUTO 30014G19KT 1SM -SN BR OVC010 M02/M03 A2968 RMK AO2 P0002 TSNO
KMFD 010652Z AUTO 30011G19KT 1 1/4SM -SN BR BKN008 OVC012 M02/M03 A2967 RMK AO2 SLP058 P0001 T10221033 TSNO
KMFD 010552Z AUTO 30015G22KT 1SM -SN BR BKN008 OVC012 M02/M03 A2967 RMK AO2 SLP058 P0003 60013 T10221028 10000 21022 51003 TSNO
KMFD 010542Z AUTO 30013G19KT 3/4SM -SN BR BKN008 OVC011 M02/M03 A2966 RMK AO2 P0002 T10171028 TSNO
KMFD 010534Z AUTO 30011G19KT 1SM -SN BR OVC008 M02/M03 A2966 RMK AO2 P0002 T10171028 TSNO
KMFD 010452Z AUTO 31013KT 3/4SM -SN BR BKN008 OVC012 M02/M03 A2966 RMK AO2 SLP056 P0001 T10171028 400721017 TSNO
KMFD 010352Z AUTO 30013G20KT 1 1/4SM -SN BR BKN007 OVC013 M01/M02 A2966 RMK AO2 PK WND 32028/0258 SLP055 P0001 T10111022 TSNO
KMFD 010252Z 30014KT 1SM -SN BR OVC007 M01/M02 A2966 RMK AO2 SLP053 P0003 60008 T10111017 51009